Current | Forecast
Updated: 3:30 AM MSK on December 14, 2017
Observed at Voronez Airport, Russia
Temperature 43°F
Windchill 40°F
Humidity 93%
Dew Point 41°F
Wind SE at 4 mph
Pressure 29.89 in (Steady)
Conditions Overcast
Visibility 1.4 miles
UV 0 out of 16
Clouds Overcast (OVC) : 500 ft
Yesterday's Maximum 45°F
Yesterday's Minimum 41°F approx.
Yesterday's Heating Degree Days 22 approx.
Sunrise8:26 AM MSK
Sunset4:15 PM MSK
Moon Rise4:00 AM MSK
Moon Set2:40 PM MSK
Moon PhaseMoon Phase
Waning Crescent
Raw METARMETAR UUOO 140030Z 14002MPS 2200 BR OVC005 06/05 Q1012 R30/190055 TEMPO 1000 OVC004 RMK QFE746


Monday
. High: 71° F.
Tuesday
. High: 59° F.
Wednesday
. High: 62° F.
Thursday
. High: 55° F.
Friday
. High: 64° F.
Saturday
. High: 62° F.
Sunday
. High: 60° F.
Monday
. High: 64° F.

Units: English | Metric

Find the Weather for any City, State or Zipcode, or Country:

U.S. State List | Severe Weather | Tropical Storms | Ski Conditions
United States | Canada | Central America | South America | Asia | Europe | Australia | Africa | Islands

Weather Underground

© Copyright 2017
The Weather Company, LLC